Mountain View, CA (94040)

2:22 PM PST on February 05, 2016 (GMT -0800)
Old Mountain View | | Change Station
CLOSE
Current Station
Personal Weather Station
Location: Mountain View, CA
Elevation: 112 ft
Nearby Weather Stations

Elev 112 ft 37.39 °N, 122.08 °W | Updated 2 minutes ago

Clear
Clear
62.8 °F
Feels Like 62.8 °F
N
2.7
Wind Variable Wind from NNE

Today
High -- | Low -- °F
--% Chance of Precip.
Yesterday
High -- | Low -- °F
Precip. -- in
Pressure 30.40 in
Visibility 10.0 miles
Clouds Clear
Dew Point 45 °F
Humidity 53%
Rainfall 0.00 in
Snow Depth Not available.
7:08 AM 5:36 PM
Waning Crescent, 9% visible
METAR KNUQ 052156Z 36006KT 10SM CLR 17/07 A3039 RMK AO2 SLP293 T01670072
Pressure 30.40 in
Visibility 10.0 miles
Clouds Clear
Dew Point 45 °F
Humidity 53%
Rainfall 0.00 in
Snow Depth Not available.
7:08 AM 5:36 PM
Waning Crescent, 9% visible
METAR KNUQ 052156Z 36006KT 10SM CLR 17/07 A3039 RMK AO2 SLP293 T01670072

10-Day Weather Forecast

Almanac

Astronomy

Feb. 05, 2016 Rise Set
Actual Time
Civil Twilight
Nautical Twilight
Astronomical Twilight
Moon
Length of Visible Light
Length of Day
Tomorrow will be .
, % of the Moon is Illuminated

Today's Extremes

State Highs State Lows

Community

WunderPhotos

Upload Photos

1,890,878 photos uploaded!

WunderBlog® & News

Nearby

Air Quality

  Air Quality AQ Index Pollutant
Not available.

Snow Depth

Station Depth Elevation

Earthquake Activity

City Distance Mag. Time & Date
Minimum magnitude displayed is 2.5.

Coastal Water Temperatures

Place Temperature

Stations

Nearby Weather Stations

Station Location Temp. Windchill Dew Point Humidity Wind Precip. Elev Updated Type
                   

Watches & Warnings

There are currently no watches in effect.